createdAt,value
2023-01-15T00:01:34.917Z,57.84
2023-01-15T00:04:43.725Z,57.98
2023-01-15T00:07:51.418Z,57.68
2023-01-15T00:10:57.521Z,57.74
2023-01-15T00:14:04.764Z,57.64
2023-01-15T00:17:10.921Z,57.44
2023-01-15T00:20:22.639Z,57.11
2023-01-15T00:23:40.925Z,57.65
2023-01-15T00:27:00.492Z,57.37
2023-01-15T00:30:06.870Z,57.54
2023-01-15T00:33:13.843Z,56.98
2023-01-15T00:36:22.554Z,57.16
2023-01-15T00:39:30.320Z,57.06
2023-01-15T00:42:36.520Z,56.74
2023-01-15T00:45:43.790Z,56.53
2023-01-15T00:48:50.014Z,56.38
2023-01-15T00:51:59.535Z,56.61
2023-01-15T00:55:05.760Z,56.83
2023-01-15T00:58:12.600Z,56.09
2023-01-15T01:01:19.679Z,56.50
2023-01-15T01:04:26.723Z,56.63
2023-01-15T01:07:35.287Z,56.94
2023-01-15T01:10:43.499Z,56.85
2023-01-15T01:13:50.287Z,56.82
2023-01-15T01:16:57.602Z,57.10
2023-01-15T01:20:03.868Z,57.23
2023-01-15T01:23:13.371Z,57.65
2023-01-15T01:26:20.299Z,57.56
2023-01-15T01:29:27.665Z,57.71
2023-01-15T01:32:33.650Z,58.11
2023-01-15T01:35:41.571Z,57.97
2023-01-15T01:38:52.072Z,58.65
2023-01-15T01:41:59.024Z,58.16
2023-01-15T01:45:25.108Z,58.72
2023-01-15T01:48:37.398Z,58.58
2023-01-15T01:51:49.189Z,58.29
2023-01-15T01:55:01.247Z,58.43
2023-01-15T01:58:13.938Z,58.56
2023-01-15T02:01:22.560Z,58.94
2023-01-15T02:04:34.231Z,59.18
2023-01-15T02:07:41.683Z,59.25
2023-01-15T02:10:56.751Z,59.15
2023-01-15T02:14:24.434Z,59.25
2023-01-15T02:17:46.135Z,59.11
2023-01-15T02:21:03.235Z,59.36
2023-01-15T02:24:26.701Z,59.26
2023-01-15T02:27:38.697Z,59.49
2023-01-15T02:30:56.466Z,59.80
2023-01-15T02:34:15.439Z,59.65
2023-01-15T02:37:31.631Z,59.55
2023-01-15T02:40:43.049Z,59.29
2023-01-15T02:44:00.474Z,59.46
2023-01-15T02:47:12.869Z,59.02
2023-01-15T02:50:31.289Z,58.96
2023-01-15T02:53:46.008Z,58.59
2023-01-15T02:56:56.086Z,58.53
2023-01-15T03:00:14.387Z,58.69
2023-01-15T03:03:34.259Z,58.05
2023-01-15T03:06:49.530Z,58.19
2023-01-15T03:10:01.652Z,58.19
2023-01-15T03:13:20.632Z,58.10
2023-01-15T03:16:40.181Z,57.66
2023-01-15T03:19:55.538Z,58.04
2023-01-15T03:23:14.927Z,58.02
2023-01-15T03:26:21.116Z,58.04
2023-01-15T03:29:35.838Z,58.29
2023-01-15T03:32:45.604Z,58.80
2023-01-15T03:35:58.654Z,58.78
2023-01-15T03:39:16.455Z,59.08
2023-01-15T03:43:17.626Z,59.25
2023-01-15T03:46:59.244Z,60.03
2023-01-15T03:50:27.174Z,60.51
2023-01-15T03:53:45.136Z,60.46
2023-01-15T03:57:01.805Z,60.65
2023-01-15T04:00:18.693Z,61.04
2023-01-15T04:03:35.739Z,61.29
2023-01-15T04:06:47.972Z,61.22
2023-01-15T04:09:55.342Z,61.78
2023-01-15T04:13:01.504Z,61.77
2023-01-15T04:16:11.164Z,61.95
2023-01-15T04:19:17.326Z,62.16
2023-01-15T04:22:42.892Z,62.20
2023-01-15T04:25:49.085Z,61.44
2023-01-15T04:28:55.875Z,61.22
2023-01-15T04:32:01.967Z,60.85
2023-01-15T04:35:09.888Z,60.57
2023-01-15T04:38:18.646Z,59.81
2023-01-15T04:41:38.014Z,59.75
2023-01-15T04:44:44.102Z,58.91
2023-01-15T04:47:50.988Z,58.60
2023-01-15T04:50:58.120Z,58.88
2023-01-15T04:54:10.756Z,58.34
2023-01-15T04:57:17.827Z,58.63
2023-01-15T05:00:25.629Z,58.72
2023-01-15T05:03:32.029Z,58.33
2023-01-15T05:06:39.044Z,58.55
2023-01-15T05:09:51.849Z,58.64
2023-01-15T05:12:58.739Z,59.09
2023-01-15T05:16:17.546Z,58.74
2023-01-15T05:19:24.761Z,59.07
2023-01-15T05:22:32.214Z,59.25
2023-01-15T05:25:42.749Z,59.62
2023-01-15T05:28:50.296Z,59.52
2023-01-15T05:31:57.338Z,59.33
2023-01-15T05:35:03.411Z,59.76
2023-01-15T05:38:10.280Z,59.36
2023-01-15T05:41:33.779Z,59.35
2023-01-15T05:44:40.844Z,59.44
2023-01-15T05:47:46.875Z,59.43
2023-01-15T05:50:53.829Z,59.29
2023-01-15T05:54:01.680Z,59.32
2023-01-15T05:57:16.236Z,58.76
2023-01-15T06:00:24.497Z,58.99
2023-01-15T06:03:31.455Z,58.84
2023-01-15T06:06:38.731Z,58.82
2023-01-15T06:09:45.865Z,58.79
2023-01-15T06:12:54.484Z,58.74
2023-01-15T06:16:03.140Z,58.75
2023-01-15T06:19:11.288Z,58.56
2023-01-15T06:22:18.561Z,58.40
2023-01-15T06:25:24.872Z,58.16
2023-01-15T06:28:35.254Z,58.55
2023-01-15T06:31:41.516Z,58.31
2023-01-15T06:34:48.414Z,58.05
2023-01-15T06:37:55.205Z,57.98
2023-01-15T06:41:03.606Z,58.29
2023-01-15T06:44:29.166Z,57.93
2023-01-15T06:47:36.125Z,57.67
2023-01-15T06:50:42.227Z,57.58
2023-01-15T06:53:49.798Z,57.27
2023-01-15T06:56:56.148Z,57.00
2023-01-15T07:00:05.969Z,56.95
2023-01-15T07:03:14.493Z,56.87
2023-01-15T07:06:21.525Z,56.86
2023-01-15T07:09:28.021Z,56.13
2023-01-15T07:12:34.948Z,56.44
2023-01-15T07:15:44.401Z,55.78
2023-01-15T07:18:51.310Z,55.80
2023-01-15T07:21:57.553Z,55.89
2023-01-15T07:25:04.843Z,55.65
2023-01-15T07:28:11.619Z,55.80
2023-01-15T07:31:21.309Z,55.36
2023-01-15T07:34:28.255Z,55.43
2023-01-15T07:37:35.241Z,55.07
2023-01-15T07:40:41.454Z,55.01
2023-01-15T07:44:01.084Z,55.12
2023-01-15T07:47:34.681Z,55.08
2023-01-15T07:50:41.699Z,55.47
2023-01-15T07:53:47.979Z,56.00
2023-01-15T07:56:56.989Z,56.08
2023-01-15T08:00:03.489Z,55.72
2023-01-15T08:03:21.447Z,56.10
2023-01-15T08:06:27.671Z,55.89
2023-01-15T08:09:35.030Z,56.21
2023-01-15T08:12:55.129Z,55.29
2023-01-15T08:16:03.404Z,55.58
2023-01-15T08:19:12.670Z,55.53
2023-01-15T08:22:19.606Z,55.35
2023-01-15T08:25:29.791Z,55.52
2023-01-15T08:28:36.725Z,55.51
2023-01-15T08:31:43.157Z,55.24
2023-01-15T08:34:52.811Z,55.39
2023-01-15T08:37:59.039Z,55.23
2023-01-15T08:41:06.146Z,54.74
2023-01-15T08:44:14.212Z,54.92
2023-01-15T08:47:21.708Z,54.53
2023-01-15T08:50:30.640Z,54.77
2023-01-15T08:53:38.732Z,54.64
2023-01-15T08:56:45.329Z,54.55
2023-01-15T08:59:52.497Z,54.38
2023-01-15T09:02:58.690Z,54.05
2023-01-15T09:06:09.232Z,54.19
2023-01-15T09:09:16.454Z,53.74
2023-01-15T09:12:25.232Z,53.79
2023-01-15T09:15:31.894Z,53.88
2023-01-15T09:18:41.707Z,54.07
2023-01-15T09:21:50.535Z,53.73
2023-01-15T09:24:57.617Z,53.02
2023-01-15T09:28:03.715Z,52.94
2023-01-15T09:31:10.865Z,52.58
2023-01-15T09:34:17.094Z,52.92
2023-01-15T09:37:26.860Z,52.72
2023-01-15T09:40:50.691Z,52.29
2023-01-15T09:44:20.257Z,52.89
2023-01-15T09:47:37.139Z,54.34
2023-01-15T09:51:07.808Z,56.10
2023-01-15T09:54:47.318Z,56.66
2023-01-15T09:58:01.238Z,56.71
2023-01-15T10:01:09.529Z,57.54
2023-01-15T10:04:37.124Z,57.46
2023-01-15T10:07:57.370Z,57.78
2023-01-15T10:11:45.202Z,58.62
2023-01-15T10:15:04.506Z,60.14
2023-01-15T10:18:22.461Z,60.75
2023-01-15T10:21:43.185Z,61.20
2023-01-15T10:25:00.625Z,61.98
2023-01-15T10:28:28.343Z,61.24
2023-01-15T10:31:54.626Z,62.08
2023-01-15T10:35:33.432Z,62.53
2023-01-15T10:38:58.988Z,63.61
2023-01-15T10:42:29.856Z,64.38
2023-01-15T10:45:51.122Z,63.91
2023-01-15T10:49:05.327Z,64.75
2023-01-15T10:52:31.412Z,63.82
2023-01-15T10:55:44.810Z,65.45
2023-01-15T10:59:01.881Z,64.72
2023-01-15T11:02:29.309Z,65.19
2023-01-15T11:05:39.394Z,65.54
2023-01-15T11:09:10.258Z,66.57
2023-01-15T11:12:39.559Z,66.74
2023-01-15T11:16:05.285Z,67.29
2023-01-15T11:19:41.164Z,66.56
2023-01-15T11:22:48.179Z,66.44
2023-01-15T11:26:00.145Z,65.64
2023-01-15T11:29:25.094Z,66.04
2023-01-15T11:32:36.527Z,65.56
2023-01-15T11:35:58.553Z,65.80
2023-01-15T11:39:05.737Z,66.26
2023-01-15T11:42:33.524Z,66.47
2023-01-15T11:46:03.910Z,67.12
2023-01-15T11:49:26.380Z,67.97
2023-01-15T11:52:36.157Z,67.62
2023-01-15T11:55:53.231Z,67.13
2023-01-15T11:59:05.362Z,65.64
2023-01-15T12:02:30.794Z,65.99
2023-01-15T12:05:40.086Z,65.54
2023-01-15T12:09:06.865Z,64.93
2023-01-15T12:12:31.444Z,64.53
2023-01-15T12:15:55.636Z,64.16
2023-01-15T12:19:21.040Z,64.18
2023-01-15T12:23:02.041Z,63.46
2023-01-15T12:26:26.530Z,63.44
2023-01-15T12:29:43.203Z,63.57
2023-01-15T12:33:04.967Z,62.76
2023-01-15T12:36:23.051Z,62.84
2023-01-15T12:39:43.829Z,62.73
2023-01-15T12:43:11.112Z,62.61
2023-01-15T12:46:29.264Z,62.29
2023-01-15T12:49:49.260Z,62.22
2023-01-15T12:53:09.955Z,62.04
2023-01-15T12:56:29.004Z,62.45
2023-01-15T12:59:52.141Z,62.08
2023-01-15T13:03:19.103Z,62.07
2023-01-15T13:06:30.453Z,62.37
2023-01-15T13:09:49.490Z,62.08
2023-01-15T13:13:02.840Z,62.51
2023-01-15T13:16:25.964Z,62.72
2023-01-15T13:19:49.540Z,62.45
2023-01-15T13:23:11.864Z,62.88
2023-01-15T13:26:58.705Z,62.87
2023-01-15T13:30:47.034Z,63.08
2023-01-15T13:34:05.755Z,63.25
2023-01-15T13:37:28.342Z,63.38
2023-01-15T13:40:44.307Z,63.14
2023-01-15T13:43:51.790Z,63.55
2023-01-15T13:47:09.146Z,63.91
2023-01-15T13:50:31.258Z,63.93
2023-01-15T13:53:47.966Z,63.69
2023-01-15T13:56:55.506Z,63.78
2023-01-15T14:00:04.034Z,63.75
2023-01-15T14:03:31.492Z,64.14
2023-01-15T14:06:51.897Z,64.39
2023-01-15T14:09:58.188Z,64.37
2023-01-15T14:14:10.172Z,64.42
2023-01-15T14:17:58.380Z,64.71
2023-01-15T14:21:30.655Z,64.45
2023-01-15T14:25:19.165Z,64.56
2023-01-15T14:28:50.514Z,65.02
2023-01-15T14:32:14.990Z,64.82
2023-01-15T14:35:28.116Z,64.94
2023-01-15T14:38:34.485Z,64.98
2023-01-15T14:41:59.385Z,65.07
2023-01-15T14:45:12.144Z,65.59
2023-01-15T14:48:37.842Z,65.55
2023-01-15T14:51:54.257Z,66.00
2023-01-15T14:55:03.904Z,65.67
2023-01-15T14:58:35.075Z,65.83
2023-01-15T15:01:52.830Z,66.09
2023-01-15T15:05:03.529Z,65.72
2023-01-15T15:08:17.430Z,66.33
2023-01-15T15:11:51.399Z,67.51
2023-01-15T15:15:19.487Z,68.25
2023-01-15T15:18:36.444Z,68.40
2023-01-15T15:21:49.917Z,68.51
2023-01-15T15:24:59.547Z,67.77
2023-01-15T15:28:09.763Z,68.27
2023-01-15T15:31:26.617Z,69.38
2023-01-15T15:34:38.442Z,69.75
2023-01-15T15:37:48.968Z,70.49
2023-01-15T15:41:02.135Z,70.26
2023-01-15T15:44:29.585Z,70.85
2023-01-15T15:47:57.312Z,70.99
2023-01-15T15:51:03.845Z,70.89
2023-01-15T15:54:19.732Z,71.80
2023-01-15T15:57:26.101Z,72.28
2023-01-15T16:00:38.289Z,73.05
2023-01-15T16:03:52.544Z,73.45
2023-01-15T16:06:59.615Z,73.81
2023-01-15T16:10:17.768Z,73.34
2023-01-15T16:13:35.738Z,73.14
2023-01-15T16:16:42.796Z,73.24
2023-01-15T16:19:52.984Z,72.56
2023-01-15T16:23:04.364Z,71.78
2023-01-15T16:26:23.227Z,71.51
2023-01-15T16:29:34.306Z,71.48
2023-01-15T16:32:42.415Z,72.62
2023-01-15T16:35:51.703Z,72.76
2023-01-15T16:38:59.672Z,73.38
2023-01-15T16:42:06.063Z,74.64
2023-01-15T16:45:28.535Z,75.02
2023-01-15T16:48:38.458Z,75.73
2023-01-15T16:51:48.583Z,76.92
2023-01-15T16:54:56.991Z,77.44
2023-01-15T16:58:36.039Z,78.08
2023-01-15T17:01:46.735Z,79.04
2023-01-15T17:04:54.649Z,79.37
2023-01-15T17:08:03.749Z,79.98
2023-01-15T17:11:24.291Z,80.62
2023-01-15T17:14:32.810Z,81.13
2023-01-15T17:17:40.375Z,81.46
2023-01-15T17:20:46.735Z,81.77
2023-01-15T17:23:57.706Z,82.75
2023-01-15T17:27:03.979Z,82.58
2023-01-15T17:30:16.914Z,82.97
2023-01-15T17:33:24.542Z,83.72
2023-01-15T17:36:34.811Z,84.16
2023-01-15T17:39:44.162Z,83.99
2023-01-15T17:42:52.183Z,84.37
2023-01-15T17:46:00.295Z,83.83
2023-01-15T17:49:07.705Z,84.18
2023-01-15T17:52:23.098Z,84.49
2023-01-15T17:55:45.730Z,84.17
2023-01-15T17:59:04.411Z,84.71
2023-01-15T18:02:31.781Z,84.25
2023-01-15T18:05:38.344Z,84.78
2023-01-15T18:08:52.461Z,85.24
2023-01-15T18:12:01.395Z,85.58
2023-01-15T18:15:10.798Z,85.46
2023-01-15T18:18:17.123Z,84.97
2023-01-15T18:21:25.233Z,85.27
2023-01-15T18:24:32.126Z,85.14
2023-01-15T18:27:43.586Z,84.96
2023-01-15T18:30:50.647Z,85.01
2023-01-15T18:33:57.622Z,85.29
2023-01-15T18:37:04.107Z,85.01
2023-01-15T18:40:13.658Z,85.53
2023-01-15T18:43:34.785Z,85.52
2023-01-15T18:46:50.657Z,85.99
2023-01-15T18:49:58.085Z,86.18
2023-01-15T18:53:05.317Z,86.32
2023-01-15T18:56:11.909Z,86.13
2023-01-15T18:59:21.555Z,86.36
2023-01-15T19:02:27.932Z,86.35
2023-01-15T19:05:35.365Z,86.33
2023-01-15T19:08:41.624Z,86.12
2023-01-15T19:11:48.669Z,86.24
2023-01-15T19:15:10.063Z,86.18
2023-01-15T19:18:29.645Z,86.16
2023-01-15T19:21:35.836Z,86.87
2023-01-15T19:24:43.261Z,86.62
2023-01-15T19:27:50.781Z,86.96
2023-01-15T19:31:12.754Z,87.08
2023-01-15T19:34:33.229Z,86.41
2023-01-15T19:37:42.227Z,86.48
2023-01-15T19:40:50.303Z,86.63
2023-01-15T19:44:09.645Z,86.44
2023-01-15T19:47:38.520Z,86.02
2023-01-15T19:50:48.851Z,86.23
2023-01-15T19:53:55.089Z,86.67
2023-01-15T19:57:02.343Z,86.52
2023-01-15T20:00:13.491Z,86.31
2023-01-15T20:03:24.054Z,86.06
2023-01-15T20:06:30.232Z,85.99
2023-01-15T20:09:38.802Z,85.48
2023-01-15T20:12:59.130Z,85.64
2023-01-15T20:16:11.969Z,85.84
2023-01-15T20:19:20.894Z,85.82
2023-01-15T20:22:28.806Z,85.51
2023-01-15T20:25:36.365Z,85.69
2023-01-15T20:28:47.876Z,85.44
2023-01-15T20:31:54.419Z,85.37
2023-01-15T20:35:04.360Z,86.17
2023-01-15T20:38:10.830Z,85.71
2023-01-15T20:41:30.327Z,85.43
2023-01-15T20:44:49.047Z,85.64
2023-01-15T20:48:08.777Z,86.11
2023-01-15T20:51:19.939Z,86.12
2023-01-15T20:54:28.949Z,86.17
2023-01-15T20:57:37.447Z,86.05
2023-01-15T21:00:44.980Z,86.30
2023-01-15T21:03:51.220Z,85.88
2023-01-15T21:07:00.940Z,85.58
2023-01-15T21:10:10.307Z,85.62
2023-01-15T21:13:17.561Z,85.60
2023-01-15T21:16:23.803Z,85.85
2023-01-15T21:19:31.217Z,85.90
2023-01-15T21:22:40.741Z,85.88
2023-01-15T21:25:47.919Z,85.89
2023-01-15T21:28:57.356Z,85.70
2023-01-15T21:32:04.417Z,85.82
2023-01-15T21:35:11.620Z,85.89
2023-01-15T21:38:21.288Z,86.53
2023-01-15T21:41:48.854Z,86.49
2023-01-15T21:44:53.415Z,86.17
2023-01-15T21:47:59.641Z,85.93
2023-01-15T21:51:08.674Z,85.80
2023-01-15T21:54:17.755Z,85.93
2023-01-15T21:57:24.934Z,86.32
2023-01-15T22:00:31.336Z,85.93
2023-01-15T22:03:39.375Z,86.07
2023-01-15T22:06:45.625Z,86.00
2023-01-15T22:09:55.366Z,85.75
2023-01-15T22:13:01.580Z,85.45
2023-01-15T22:16:10.056Z,85.59
2023-01-15T22:19:20.228Z,85.68
2023-01-15T22:22:31.406Z,85.13
2023-01-15T22:25:43.344Z,84.94
2023-01-15T22:28:52.044Z,85.28
2023-01-15T22:31:59.418Z,85.52
2023-01-15T22:35:06.865Z,85.09
2023-01-15T22:38:13.203Z,85.22
2023-01-15T22:41:43.525Z,85.17
2023-01-15T22:44:50.982Z,85.14
2023-01-15T22:47:58.004Z,84.96
2023-01-15T22:51:04.713Z,84.87
2023-01-15T22:54:13.976Z,85.02
2023-01-15T22:57:23.779Z,84.81
2023-01-15T23:00:30.844Z,85.13
2023-01-15T23:03:38.366Z,85.13
2023-01-15T23:06:45.898Z,85.37
2023-01-15T23:09:52.000Z,85.11
2023-01-15T23:13:01.805Z,85.45
2023-01-15T23:16:09.502Z,85.07
2023-01-15T23:19:16.435Z,85.39
2023-01-15T23:22:22.909Z,85.48
2023-01-15T23:25:29.843Z,85.16
2023-01-15T23:28:38.687Z,85.13
2023-01-15T23:31:45.644Z,85.36
2023-01-15T23:34:51.910Z,85.42
2023-01-15T23:37:58.776Z,85.67
2023-01-15T23:41:10.545Z,85.80
2023-01-15T23:44:36.982Z,85.48
2023-01-15T23:47:43.160Z,85.32
2023-01-15T23:50:50.172Z,85.46
2023-01-15T23:53:56.373Z,85.84
2023-01-15T23:57:08.119Z,86.04
